createdAt,value
2022-09-12T00:00:38.475Z,3.36
2022-09-12T00:01:42.734Z,3.11
2022-09-12T00:02:46.992Z,4.45
2022-09-12T00:03:51.245Z,2.89
2022-09-12T00:04:55.496Z,3.32
2022-09-12T00:05:58.594Z,2.74
2022-09-12T00:07:02.865Z,3.42
2022-09-12T00:08:06.064Z,4.03
2022-09-12T00:09:08.528Z,3.71
2022-09-12T00:10:11.693Z,4.72
2022-09-12T00:11:14.183Z,3.85
2022-09-12T00:12:16.641Z,3.20
2022-09-12T00:13:19.090Z,2.93
2022-09-12T00:14:21.536Z,3.75
2022-09-12T00:15:23.974Z,3.43
2022-09-12T00:16:26.792Z,2.81
2022-09-12T00:17:29.286Z,3.07
2022-09-12T00:18:31.732Z,3.35
2022-09-12T00:19:34.187Z,3.50
2022-09-12T00:20:36.824Z,3.58
2022-09-12T00:21:39.511Z,3.26
2022-09-12T00:22:41.957Z,3.15
2022-09-12T00:23:44.409Z,3.06
2022-09-12T00:24:46.850Z,2.79
2022-09-12T00:25:49.295Z,2.99
2022-09-12T00:26:51.876Z,3.15
2022-09-12T00:27:54.341Z,3.00
2022-09-12T00:28:56.782Z,3.16
2022-09-12T00:29:59.223Z,2.64
2022-09-12T00:31:01.967Z,3.06
2022-09-12T00:32:04.687Z,2.73
2022-09-12T00:33:07.133Z,2.87
2022-09-12T00:34:09.579Z,2.54
2022-09-12T00:35:12.028Z,3.28
2022-09-12T00:36:15.896Z,2.65
2022-09-12T00:37:18.368Z,3.89
2022-09-12T00:38:20.812Z,2.81
2022-09-12T00:39:23.277Z,2.67
2022-09-12T00:40:26.637Z,3.65
2022-09-12T00:41:29.288Z,3.04
2022-09-12T00:42:31.763Z,2.51
2022-09-12T00:43:34.320Z,2.99
2022-09-12T00:44:36.768Z,4.63
2022-09-12T00:45:39.265Z,2.88
2022-09-12T00:46:41.981Z,3.29
2022-09-12T00:47:44.690Z,2.43
2022-09-12T00:48:47.185Z,2.62
2022-09-12T00:49:49.689Z,2.63
2022-09-12T00:50:52.331Z,2.67
2022-09-12T00:51:54.770Z,2.79
2022-09-12T00:52:57.247Z,2.59
2022-09-12T00:53:59.691Z,2.63
2022-09-12T00:55:02.143Z,2.48
2022-09-12T00:56:04.788Z,3.15
2022-09-12T00:57:07.233Z,2.17
2022-09-12T00:58:09.701Z,2.33
2022-09-12T00:59:12.194Z,3.27
2022-09-12T01:00:15.763Z,2.27
2022-09-12T01:01:18.470Z,2.58
2022-09-12T01:02:21.459Z,2.46
2022-09-12T01:03:23.923Z,2.51
2022-09-12T01:04:26.363Z,2.39
2022-09-12T01:05:29.106Z,2.25
2022-09-12T01:06:32.359Z,2.45
2022-09-12T01:07:39.306Z,2.69
2022-09-12T01:08:39.186Z,2.52
2022-09-12T01:09:41.623Z,2.51
2022-09-12T01:10:44.266Z,2.52
2022-09-12T01:11:46.708Z,2.45
2022-09-12T01:12:49.152Z,2.43
2022-09-12T01:13:51.627Z,2.55
2022-09-12T01:14:54.078Z,2.37
2022-09-12T01:15:56.526Z,2.13
2022-09-12T01:16:59.076Z,2.31
2022-09-12T01:18:01.519Z,2.35
2022-09-12T01:19:04.009Z,2.92
2022-09-12T01:20:06.651Z,2.54
2022-09-12T01:21:09.092Z,2.47
2022-09-12T01:22:11.839Z,2.09
2022-09-12T01:23:14.484Z,2.65
2022-09-12T01:24:16.959Z,2.96
2022-09-12T01:25:19.400Z,2.57
2022-09-12T01:26:22.553Z,2.44
2022-09-12T01:27:25.000Z,2.32
2022-09-12T01:28:27.445Z,2.52
2022-09-12T01:29:29.946Z,2.69
2022-09-12T01:30:32.547Z,2.21
2022-09-12T01:31:34.990Z,2.75
2022-09-12T01:32:37.430Z,2.49
2022-09-12T01:33:39.874Z,2.29
2022-09-12T01:34:42.352Z,2.62
2022-09-12T01:35:44.806Z,2.73
2022-09-12T01:36:47.351Z,2.77
2022-09-12T01:37:49.791Z,2.54
2022-09-12T01:38:52.236Z,3.11
2022-09-12T01:39:54.738Z,2.52
2022-09-12T01:40:57.754Z,2.14
2022-09-12T01:42:00.393Z,2.21
2022-09-12T01:43:02.839Z,2.94
2022-09-12T01:44:05.276Z,2.15
2022-09-12T01:45:07.746Z,2.38
2022-09-12T01:46:11.095Z,2.33
2022-09-12T01:47:13.516Z,2.84
2022-09-12T01:48:15.955Z,2.35
2022-09-12T01:49:18.400Z,2.39
2022-09-12T01:50:21.180Z,2.89
2022-09-12T01:51:23.622Z,2.62
2022-09-12T01:52:26.678Z,2.61
2022-09-12T01:53:29.124Z,2.60
2022-09-12T01:54:31.562Z,2.39
2022-09-12T01:55:34.053Z,4.09
2022-09-12T01:56:36.796Z,3.06
2022-09-12T01:57:39.262Z,2.43
2022-09-12T01:58:41.749Z,2.47
2022-09-12T01:59:44.251Z,2.50
2022-09-12T02:00:46.957Z,2.76
2022-09-12T02:01:49.459Z,2.32
2022-09-12T02:02:52.186Z,2.99
2022-09-12T02:03:54.631Z,2.50
2022-09-12T02:04:57.068Z,2.48
2022-09-12T02:05:59.536Z,2.59
2022-09-12T02:07:02.286Z,2.82
2022-09-12T02:08:04.726Z,2.82
2022-09-12T02:09:07.169Z,3.13
2022-09-12T02:10:10.307Z,2.87
2022-09-12T02:11:12.795Z,2.93
2022-09-12T02:12:15.238Z,3.24
2022-09-12T02:13:17.684Z,2.76
2022-09-12T02:14:20.117Z,2.62
2022-09-12T02:15:22.565Z,2.60
2022-09-12T02:16:26.124Z,2.24
2022-09-12T02:17:28.606Z,2.63
2022-09-12T02:18:31.042Z,2.95
2022-09-12T02:19:33.473Z,3.05
2022-09-12T02:20:51.284Z,2.83
2022-09-12T02:21:40.625Z,2.70
2022-09-12T02:22:43.266Z,3.52
2022-09-12T02:23:45.702Z,2.83
2022-09-12T02:24:48.139Z,3.61
2022-09-12T02:25:50.855Z,2.78
2022-09-12T02:26:53.619Z,2.97
2022-09-12T02:27:56.057Z,3.46
2022-09-12T02:28:58.525Z,3.29
2022-09-12T02:30:00.959Z,3.21
2022-09-12T02:31:03.442Z,3.64
2022-09-12T02:32:05.960Z,2.96
2022-09-12T02:33:08.420Z,3.19
2022-09-12T02:34:10.870Z,3.12
2022-09-12T02:35:13.312Z,3.49
2022-09-12T02:36:16.455Z,3.41
2022-09-12T02:37:18.976Z,3.41
2022-09-12T02:38:21.411Z,3.72
2022-09-12T02:39:23.859Z,3.40
2022-09-12T02:40:26.513Z,4.09
2022-09-12T02:41:29.150Z,3.67
2022-09-12T02:42:31.971Z,4.30
2022-09-12T02:43:34.405Z,3.50
2022-09-12T02:44:36.902Z,3.53
2022-09-12T02:45:39.376Z,3.61
2022-09-12T02:46:42.180Z,4.09
2022-09-12T02:47:44.657Z,4.74
2022-09-12T02:48:47.202Z,3.45
2022-09-12T02:49:49.657Z,3.89
2022-09-12T02:50:52.197Z,4.42
2022-09-12T02:51:54.636Z,3.57
2022-09-12T02:52:57.202Z,4.03
2022-09-12T02:53:59.656Z,5.07
2022-09-12T02:55:02.098Z,4.25
2022-09-12T02:56:04.633Z,4.00
2022-09-12T02:57:07.370Z,4.85
2022-09-12T02:58:10.190Z,4.29
2022-09-12T02:59:12.630Z,4.57
2022-09-12T03:00:16.587Z,4.35
2022-09-12T03:01:19.289Z,4.45
2022-09-12T03:02:22.017Z,4.34
2022-09-12T03:03:24.598Z,4.13
2022-09-12T03:04:27.046Z,4.42
2022-09-12T03:05:29.480Z,3.57
2022-09-12T03:06:32.311Z,4.51
2022-09-12T03:07:34.753Z,4.63
2022-09-12T03:08:37.218Z,4.45
2022-09-12T03:09:39.651Z,5.07
2022-09-12T03:10:42.305Z,4.07
2022-09-12T03:11:44.770Z,4.45
2022-09-12T03:12:47.203Z,4.03
2022-09-12T03:13:49.686Z,4.87
2022-09-12T03:14:52.121Z,4.33
2022-09-12T03:15:54.616Z,4.35
2022-09-12T03:16:57.463Z,4.04
2022-09-12T03:17:59.901Z,4.67
2022-09-12T03:19:02.374Z,4.67
2022-09-12T03:20:05.123Z,3.62
2022-09-12T03:21:07.669Z,5.30
2022-09-12T03:22:10.506Z,4.66
2022-09-12T03:23:12.944Z,5.33
2022-09-12T03:24:15.423Z,4.65
2022-09-12T03:25:17.878Z,4.74
2022-09-12T03:26:20.522Z,4.41
2022-09-12T03:27:23.748Z,4.49
2022-09-12T03:28:26.249Z,5.39
2022-09-12T03:29:28.710Z,4.00
2022-09-12T03:30:33.114Z,4.62
2022-09-12T03:31:35.628Z,4.30
2022-09-12T03:32:38.159Z,4.48
2022-09-12T03:33:40.588Z,4.39
2022-09-12T03:34:43.283Z,4.37
2022-09-12T03:35:45.722Z,5.11
2022-09-12T03:36:48.466Z,4.81
2022-09-12T03:37:50.901Z,5.35
2022-09-12T03:38:53.349Z,5.30
2022-09-12T03:39:55.850Z,4.96
2022-09-12T03:40:58.640Z,4.59
2022-09-12T03:42:01.182Z,4.31
2022-09-12T03:43:03.624Z,4.83
2022-09-12T03:44:06.255Z,5.34
2022-09-12T03:45:08.818Z,4.78
2022-09-12T03:46:11.565Z,5.13
2022-09-12T03:47:13.999Z,4.81
2022-09-12T03:48:16.440Z,6.34
2022-09-12T03:49:18.876Z,4.07
2022-09-12T03:50:23.165Z,4.22
2022-09-12T03:51:25.610Z,3.87
2022-09-12T03:52:28.055Z,4.39
2022-09-12T03:53:30.514Z,4.33
2022-09-12T03:54:32.947Z,4.40
2022-09-12T03:55:35.412Z,4.70
2022-09-12T03:56:38.255Z,5.81
2022-09-12T03:57:40.894Z,5.50
2022-09-12T03:58:43.333Z,4.46
2022-09-12T03:59:46.174Z,4.58
2022-09-12T04:00:48.967Z,5.12
2022-09-12T04:01:51.610Z,6.33
2022-09-12T04:02:54.234Z,6.36
2022-09-12T04:03:56.667Z,7.70
2022-09-12T04:04:59.141Z,7.35
2022-09-12T04:06:01.627Z,7.78
2022-09-12T04:07:04.058Z,7.67
2022-09-12T04:08:06.495Z,7.72
2022-09-12T04:09:08.930Z,7.97
2022-09-12T04:10:12.101Z,7.56
2022-09-12T04:11:14.577Z,7.20
2022-09-12T04:12:17.027Z,7.58
2022-09-12T04:13:19.457Z,7.34
2022-09-12T04:14:21.905Z,7.47
2022-09-12T04:15:24.340Z,7.72
2022-09-12T04:16:27.249Z,7.76
2022-09-12T04:17:29.764Z,7.59
2022-09-12T04:18:32.207Z,7.09
2022-09-12T04:19:34.655Z,7.11
2022-09-12T04:20:37.195Z,7.26
2022-09-12T04:21:39.694Z,7.50
2022-09-12T04:22:42.239Z,6.63
2022-09-12T04:23:44.676Z,6.70
2022-09-12T04:24:47.122Z,5.90
2022-09-12T04:25:49.561Z,5.95
2022-09-12T04:26:52.355Z,6.03
2022-09-12T04:27:54.797Z,5.70
2022-09-12T04:28:57.242Z,4.97
2022-09-12T04:29:59.690Z,4.92
2022-09-12T04:31:02.157Z,4.80
2022-09-12T04:32:04.640Z,5.81
2022-09-12T04:33:08.193Z,5.72
2022-09-12T04:34:11.054Z,5.59
2022-09-12T04:35:13.503Z,5.69
2022-09-12T04:36:16.345Z,4.96
2022-09-12T04:37:18.822Z,5.21
2022-09-12T04:38:21.292Z,5.21
2022-09-12T04:39:24.238Z,6.31
2022-09-12T04:40:26.992Z,4.99
2022-09-12T04:41:29.634Z,5.75
2022-09-12T04:42:32.269Z,5.97
2022-09-12T04:43:34.710Z,4.91
2022-09-12T04:44:37.182Z,5.65
2022-09-12T04:45:40.358Z,5.57
2022-09-12T04:46:42.972Z,4.55
2022-09-12T04:47:45.457Z,4.86
2022-09-12T04:48:47.939Z,5.04
2022-09-12T04:49:50.348Z,5.15
2022-09-12T04:50:53.087Z,5.03
2022-09-12T04:51:55.734Z,6.22
2022-09-12T04:52:58.214Z,5.25
2022-09-12T04:54:00.655Z,4.80
2022-09-12T04:55:03.101Z,5.19
2022-09-12T04:56:05.848Z,4.70
2022-09-12T04:57:08.301Z,4.99
2022-09-12T04:58:10.775Z,4.93
2022-09-12T04:59:13.218Z,5.19
2022-09-12T05:00:15.871Z,5.49
2022-09-12T05:01:18.857Z,5.49
2022-09-12T05:02:21.595Z,5.21
2022-09-12T05:03:24.271Z,5.88
2022-09-12T05:04:26.720Z,5.73
2022-09-12T05:05:29.173Z,5.15
2022-09-12T05:06:32.540Z,5.36
2022-09-12T05:07:34.977Z,4.88
2022-09-12T05:08:37.576Z,4.53
2022-09-12T05:09:40.016Z,4.69
2022-09-12T05:10:42.868Z,4.66
2022-09-12T05:12:49.774Z,5.19
2022-09-12T05:13:52.252Z,4.60
2022-09-12T05:14:54.691Z,6.59
2022-09-12T05:15:57.135Z,4.19
2022-09-12T05:17:00.174Z,4.61
2022-09-12T05:18:02.830Z,4.29
2022-09-12T05:19:05.311Z,4.76
2022-09-12T05:20:08.160Z,5.69
2022-09-12T05:21:10.802Z,4.29
2022-09-12T05:22:13.443Z,6.09
2022-09-12T05:23:16.112Z,4.24
2022-09-12T05:24:18.781Z,5.04
2022-09-12T05:25:21.730Z,5.47
2022-09-12T05:26:25.971Z,4.73
2022-09-12T05:27:28.443Z,4.65
2022-09-12T05:28:30.996Z,4.31
2022-09-12T05:29:33.466Z,3.93
2022-09-12T05:30:36.147Z,3.77
2022-09-12T05:31:38.756Z,3.81
2022-09-12T05:32:41.193Z,3.89
2022-09-12T05:33:43.654Z,4.23
2022-09-12T05:34:46.119Z,4.61
2022-09-12T05:35:48.563Z,4.24
2022-09-12T05:36:51.122Z,3.98
2022-09-12T05:37:53.565Z,3.51
2022-09-12T05:38:56.009Z,3.25
2022-09-12T05:39:58.525Z,3.81
2022-09-12T05:41:01.141Z,3.74
2022-09-12T05:42:04.189Z,3.45
2022-09-12T05:43:07.136Z,3.61
2022-09-12T05:44:09.585Z,3.62
2022-09-12T05:45:12.083Z,6.79
2022-09-12T05:46:16.332Z,3.39
2022-09-12T05:47:18.794Z,3.57
2022-09-12T05:48:21.234Z,4.45
2022-09-12T05:49:23.705Z,4.16
2022-09-12T05:50:27.705Z,3.44
2022-09-12T05:51:30.146Z,3.51
2022-09-12T05:52:32.635Z,3.17
2022-09-12T05:53:35.085Z,3.85
2022-09-12T05:54:37.539Z,5.43
2022-09-12T05:55:40.017Z,3.87
2022-09-12T05:56:42.761Z,3.99
2022-09-12T05:57:45.203Z,3.21
2022-09-12T05:58:47.742Z,4.11
2022-09-12T05:59:50.185Z,3.91
2022-09-12T06:00:52.859Z,3.71
2022-09-12T06:01:55.844Z,2.68
2022-09-12T06:02:58.359Z,3.30
2022-09-12T06:04:00.886Z,2.99
2022-09-12T06:05:03.381Z,3.42
2022-09-12T06:06:06.252Z,3.09
2022-09-12T06:07:08.818Z,3.31
2022-09-12T06:08:11.276Z,3.71
2022-09-12T06:09:13.726Z,3.75
2022-09-12T06:10:16.873Z,3.42
2022-09-12T06:11:19.343Z,4.23
2022-09-12T06:12:21.784Z,3.05
2022-09-12T06:13:24.230Z,3.18
2022-09-12T06:14:26.665Z,3.09
2022-09-12T06:15:29.104Z,3.81
2022-09-12T06:16:32.006Z,2.86
2022-09-12T06:17:34.525Z,3.37
2022-09-12T06:18:36.974Z,4.09
2022-09-12T06:19:39.863Z,3.23
2022-09-12T06:20:42.615Z,3.65
2022-09-12T06:21:45.298Z,3.75
2022-09-12T06:22:47.940Z,3.81
2022-09-12T06:23:50.405Z,3.19
2022-09-12T06:24:57.773Z,3.35
2022-09-12T06:25:57.526Z,3.66
2022-09-12T06:27:00.196Z,3.57
2022-09-12T06:28:02.644Z,3.43
2022-09-12T06:29:05.086Z,4.59
2022-09-12T06:30:07.833Z,2.63
2022-09-12T06:31:10.277Z,3.11
2022-09-12T06:32:12.852Z,3.77
2022-09-12T06:33:15.291Z,3.61
2022-09-12T06:34:17.730Z,3.01
2022-09-12T06:35:20.174Z,3.65
2022-09-12T06:36:23.626Z,4.25
2022-09-12T06:37:26.088Z,3.16
2022-09-12T06:38:28.545Z,3.22
2022-09-12T06:39:30.989Z,3.03
2022-09-12T06:40:33.637Z,3.05
2022-09-12T06:41:39.336Z,3.03
2022-09-12T06:42:40.867Z,3.22
2022-09-12T06:43:43.304Z,3.71
2022-09-12T06:44:45.746Z,3.75
2022-09-12T06:45:48.211Z,3.05
2022-09-12T06:46:50.916Z,3.43
2022-09-12T06:47:53.395Z,2.86
2022-09-12T06:48:55.833Z,2.96
2022-09-12T06:49:58.263Z,3.85
2022-09-12T06:51:01.002Z,3.24
2022-09-12T06:52:03.439Z,3.35
2022-09-12T06:53:05.919Z,3.06
2022-09-12T06:54:08.362Z,2.71
2022-09-12T06:55:10.798Z,3.17
2022-09-12T06:56:13.647Z,2.39
2022-09-12T06:57:16.078Z,2.67
2022-09-12T06:58:18.545Z,2.64
2022-09-12T06:59:20.998Z,2.43
2022-09-12T07:00:24.040Z,2.82
2022-09-12T07:01:27.063Z,3.34
2022-09-12T07:02:29.733Z,2.81
2022-09-12T07:03:32.432Z,2.59
2022-09-12T07:04:34.869Z,2.89
2022-09-12T07:05:37.314Z,3.12
2022-09-12T07:06:40.357Z,2.47
2022-09-12T07:07:43.003Z,2.64
2022-09-12T07:08:45.785Z,3.49
2022-09-12T07:09:48.526Z,3.79
2022-09-12T07:10:51.370Z,2.39
2022-09-12T07:11:53.816Z,2.31
2022-09-12T07:12:56.250Z,2.79
2022-09-12T07:13:58.713Z,2.63
2022-09-12T07:15:01.154Z,2.15
2022-09-12T07:16:03.789Z,3.40
2022-09-12T07:17:06.310Z,4.06
2022-09-12T07:18:08.798Z,3.88
2022-09-12T07:19:11.274Z,3.10
2022-09-12T07:20:14.115Z,3.76
2022-09-12T07:21:16.860Z,3.75
2022-09-12T07:22:19.497Z,2.73
2022-09-12T07:23:22.251Z,2.11
2022-09-12T07:24:24.716Z,3.14
2022-09-12T07:25:27.157Z,2.55
2022-09-12T07:26:29.815Z,2.39
2022-09-12T07:27:32.294Z,3.75
2022-09-12T07:28:34.729Z,2.46
2022-09-12T07:29:38.035Z,3.37
2022-09-12T07:30:41.279Z,2.12
2022-09-12T07:31:43.802Z,2.40
2022-09-12T07:32:46.238Z,2.73
2022-09-12T07:33:52.472Z,2.71
2022-09-12T07:34:53.081Z,2.62
2022-09-12T07:35:55.552Z,2.87
2022-09-12T07:36:58.103Z,2.17
2022-09-12T07:38:00.742Z,2.36
2022-09-12T07:39:03.175Z,2.76
2022-09-12T07:40:05.885Z,2.69
2022-09-12T07:41:08.397Z,2.13
2022-09-12T07:42:11.059Z,2.56
2022-09-12T07:43:13.501Z,2.72
2022-09-12T07:44:15.951Z,2.34
2022-09-12T07:45:18.409Z,2.45
2022-09-12T07:46:21.448Z,2.08
2022-09-12T07:47:23.888Z,1.92
2022-09-12T07:48:28.357Z,2.80
2022-09-12T07:49:30.679Z,3.19
2022-09-12T07:50:34.089Z,3.46
2022-09-12T07:51:36.534Z,3.61
2022-09-12T07:52:38.985Z,3.40
2022-09-12T07:53:41.428Z,1.88
2022-09-12T07:54:43.863Z,2.33
2022-09-12T07:55:46.345Z,4.11
2022-09-12T07:56:49.085Z,2.71
2022-09-12T07:57:51.584Z,2.45
2022-09-12T07:58:54.035Z,2.94
2022-09-12T07:59:56.475Z,3.31
2022-09-12T08:00:59.285Z,3.63
2022-09-12T08:02:01.830Z,2.79
2022-09-12T08:03:04.825Z,2.34
2022-09-12T08:04:07.266Z,2.70
2022-09-12T08:05:09.697Z,3.08
2022-09-12T08:06:14.037Z,3.76
2022-09-12T08:07:16.769Z,3.20
2022-09-12T08:08:19.209Z,2.85
2022-09-12T08:09:21.642Z,4.25
2022-09-12T08:10:24.780Z,2.62
2022-09-12T08:11:27.355Z,2.71
2022-09-12T08:12:30.139Z,3.05
2022-09-12T08:13:32.578Z,4.22
2022-09-12T08:14:35.018Z,3.14
2022-09-12T08:15:37.487Z,2.93
2022-09-12T08:16:40.423Z,2.83
2022-09-12T08:17:43.062Z,3.65
2022-09-12T08:18:45.531Z,2.79
2022-09-12T08:19:47.976Z,2.75
2022-09-12T08:20:50.509Z,3.06
2022-09-12T08:21:53.012Z,3.37
2022-09-12T08:22:55.545Z,3.61
2022-09-12T08:23:57.994Z,2.20
2022-09-12T08:25:00.426Z,2.29
2022-09-12T08:26:06.163Z,2.83
2022-09-12T08:27:07.804Z,2.86
2022-09-12T08:28:10.244Z,2.81
2022-09-12T08:29:12.699Z,2.45
2022-09-12T08:30:15.748Z,2.79
2022-09-12T08:31:18.179Z,2.69
2022-09-12T08:32:20.649Z,3.45
2022-09-12T08:33:23.089Z,3.44
2022-09-12T08:34:25.524Z,2.64
2022-09-12T08:35:27.963Z,2.99
2022-09-12T08:36:30.803Z,2.46
2022-09-12T08:37:33.291Z,2.81
2022-09-12T08:38:35.733Z,3.91
2022-09-12T08:39:38.206Z,2.83
2022-09-12T08:40:40.907Z,4.15
2022-09-12T08:41:43.545Z,2.52
2022-09-12T08:42:46.331Z,2.53
2022-09-12T08:43:51.979Z,3.08
2022-09-12T08:44:53.146Z,3.14
2022-09-12T08:45:55.624Z,2.93
2022-09-12T08:46:58.140Z,2.75
2022-09-12T08:48:00.609Z,3.92
2022-09-12T08:49:03.049Z,2.62
2022-09-12T08:50:05.897Z,2.51
2022-09-12T08:51:08.337Z,3.12
2022-09-12T08:52:10.793Z,4.05
2022-09-12T08:53:13.266Z,3.17
2022-09-12T08:54:15.718Z,2.79
2022-09-12T08:55:18.164Z,2.97
2022-09-12T08:56:21.311Z,2.89
2022-09-12T08:57:23.753Z,3.35
2022-09-12T08:58:26.236Z,3.46
2022-09-12T08:59:28.716Z,3.45
2022-09-12T09:00:31.980Z,3.22
2022-09-12T09:01:34.659Z,2.63
2022-09-12T09:02:37.218Z,4.29
2022-09-12T09:03:39.747Z,2.56
2022-09-12T09:04:42.190Z,2.21
2022-09-12T09:05:44.635Z,2.91
2022-09-12T09:06:47.388Z,3.19
2022-09-12T09:07:49.828Z,3.09
2022-09-12T09:08:52.314Z,3.09
2022-09-12T09:09:54.899Z,2.89
2022-09-12T09:10:58.003Z,3.35
2022-09-12T09:12:00.444Z,2.71
2022-09-12T09:13:02.903Z,2.57
2022-09-12T09:14:05.628Z,3.80
2022-09-12T09:15:09.857Z,2.74
2022-09-12T09:16:12.955Z,2.94
2022-09-12T09:17:15.440Z,2.99
2022-09-12T09:18:17.886Z,2.99
2022-09-12T09:19:20.373Z,2.59
2022-09-12T09:20:23.224Z,4.59
2022-09-12T09:21:25.966Z,2.94
2022-09-12T09:22:28.412Z,2.84
2022-09-12T09:23:30.958Z,3.24
2022-09-12T09:24:33.842Z,2.51
2022-09-12T09:25:36.603Z,3.25
2022-09-12T09:26:39.243Z,3.12
2022-09-12T09:27:41.883Z,3.31
2022-09-12T09:28:44.633Z,3.10
2022-09-12T09:29:47.116Z,3.20
2022-09-12T09:30:50.030Z,3.02
2022-09-12T09:31:52.622Z,2.67
2022-09-12T09:32:55.209Z,3.89
2022-09-12T09:33:57.652Z,3.35
2022-09-12T09:35:00.127Z,3.02
2022-09-12T09:36:02.683Z,2.95
2022-09-12T09:37:05.126Z,2.99
2022-09-12T09:38:07.570Z,3.28
2022-09-12T09:39:10.104Z,3.15
2022-09-12T09:40:13.255Z,3.54
2022-09-12T09:41:16.343Z,3.26
2022-09-12T09:42:18.998Z,2.61
2022-09-12T09:43:21.744Z,3.25
2022-09-12T09:44:24.360Z,3.10
2022-09-12T09:45:27.042Z,3.52
2022-09-12T09:46:29.775Z,3.37
2022-09-12T09:47:32.431Z,4.05
2022-09-12T09:48:34.897Z,3.49
2022-09-12T09:49:37.347Z,3.07
2022-09-12T09:50:40.126Z,4.61
2022-09-12T09:51:42.565Z,3.14
2022-09-12T09:52:45.013Z,3.21
2022-09-12T09:53:47.464Z,3.13
2022-09-12T09:54:49.909Z,2.99
2022-09-12T09:55:52.392Z,2.85
2022-09-12T09:56:55.437Z,3.09
2022-09-12T09:57:57.885Z,2.93
2022-09-12T09:59:00.324Z,3.13
2022-09-12T10:00:02.893Z,3.44
2022-09-12T10:01:05.425Z,3.27
2022-09-12T10:02:08.015Z,4.64
2022-09-12T10:03:13.805Z,2.99
2022-09-12T10:04:15.617Z,3.76
2022-09-12T10:05:18.071Z,3.19
2022-09-12T10:06:20.762Z,3.97
2022-09-12T10:07:23.203Z,3.27
2022-09-12T10:08:25.645Z,3.20
2022-09-12T10:09:28.415Z,3.59
2022-09-12T10:10:31.081Z,3.73
2022-09-12T10:11:33.567Z,4.89
2022-09-12T10:12:36.010Z,3.61
2022-09-12T10:13:38.462Z,3.83
2022-09-12T10:14:40.908Z,3.45
2022-09-12T10:15:43.595Z,3.49
2022-09-12T10:16:46.545Z,3.72
2022-09-12T10:17:48.985Z,2.57
2022-09-12T10:18:51.429Z,3.25
2022-09-12T10:20:17.308Z,3.07
2022-09-12T10:20:58.437Z,4.30
2022-09-12T10:22:01.122Z,3.69
2022-09-12T10:23:03.560Z,4.99
2022-09-12T10:24:06.004Z,4.30
2022-09-12T10:25:08.457Z,3.45
2022-09-12T10:26:11.406Z,3.03
2022-09-12T10:27:13.871Z,4.03
2022-09-12T10:28:16.310Z,4.41
2022-09-12T10:29:18.752Z,3.03
2022-09-12T10:30:23.007Z,4.52
2022-09-12T10:31:25.672Z,6.10
2022-09-12T10:32:30.850Z,3.78
2022-09-12T12:20:34.385Z,4.25
2022-09-12T12:22:47.293Z,3.50
2022-09-12T12:23:49.785Z,4.29
2022-09-12T12:24:52.227Z,3.67
2022-09-12T12:25:54.707Z,3.45
2022-09-12T12:26:57.589Z,3.26
2022-09-12T12:28:00.038Z,3.08
2022-09-12T12:29:02.473Z,3.31
2022-09-12T12:30:05.351Z,2.92
2022-09-12T12:31:07.871Z,2.99
2022-09-12T12:32:10.294Z,2.66
2022-09-12T12:33:12.734Z,2.70
2022-09-12T12:34:15.204Z,2.87
2022-09-12T12:35:17.661Z,2.41
2022-09-12T12:36:20.449Z,3.20
2022-09-12T12:37:22.893Z,2.72
2022-09-12T12:38:25.345Z,2.34
2022-09-12T12:39:27.795Z,2.44
2022-09-12T12:40:30.437Z,2.95
2022-09-12T12:41:33.116Z,3.25
2022-09-12T12:42:35.783Z,2.88
2022-09-12T12:43:38.212Z,2.63
2022-09-12T12:44:40.860Z,2.65
2022-09-12T12:45:43.307Z,3.31
2022-09-12T12:46:45.922Z,2.85
2022-09-12T12:47:48.564Z,2.95
2022-09-12T12:48:51.031Z,3.63
2022-09-12T12:49:53.574Z,3.64
2022-09-12T12:50:56.219Z,2.71
2022-09-12T12:51:58.688Z,3.83
2022-09-12T12:53:01.331Z,3.55
2022-09-12T12:54:03.780Z,3.21
2022-09-12T12:55:06.504Z,3.47
2022-09-12T12:56:09.263Z,3.20
2022-09-12T12:57:11.743Z,3.78
2022-09-12T12:58:14.208Z,3.43
2022-09-12T12:59:16.654Z,2.73
2022-09-12T13:00:20.950Z,2.84
2022-09-12T13:01:23.921Z,3.34
2022-09-12T13:02:26.527Z,3.29
2022-09-12T13:03:29.210Z,4.51
2022-09-12T13:04:31.712Z,3.79
2022-09-12T13:05:34.155Z,4.45
2022-09-12T13:06:36.912Z,3.65
2022-09-12T13:07:39.388Z,3.90
2022-09-12T13:08:41.825Z,4.45
2022-09-12T13:09:44.284Z,4.48
2022-09-12T13:10:48.534Z,3.82
2022-09-12T13:11:51.237Z,4.18
2022-09-12T13:12:53.727Z,3.93
2022-09-12T13:13:56.490Z,4.13
2022-09-12T13:14:58.938Z,4.07
2022-09-12T13:16:01.410Z,4.63
2022-09-12T13:17:03.924Z,3.87
2022-09-12T13:18:06.458Z,4.36
2022-09-12T13:19:08.940Z,4.00
2022-09-12T13:20:27.185Z,4.34
2022-09-12T13:21:16.457Z,5.70
2022-09-12T13:22:19.427Z,5.54
2022-09-12T13:23:22.530Z,4.58
2022-09-12T13:24:24.992Z,4.14
2022-09-12T13:25:27.734Z,4.49
2022-09-12T13:26:30.701Z,5.03
2022-09-12T13:27:33.140Z,3.97
2022-09-12T13:28:35.685Z,5.01
2022-09-12T13:29:38.190Z,4.20
2022-09-12T13:30:41.169Z,4.69
2022-09-12T13:31:47.205Z,4.27
2022-09-12T13:32:48.268Z,4.12
2022-09-12T13:33:50.774Z,4.01
2022-09-12T13:34:53.320Z,3.87
2022-09-12T13:35:55.769Z,4.28
2022-09-12T13:36:58.607Z,3.92
2022-09-12T13:38:01.057Z,3.71
2022-09-12T13:39:03.599Z,3.91
2022-09-12T13:40:06.296Z,4.55
2022-09-12T13:41:09.272Z,5.08
2022-09-12T13:42:11.719Z,5.86
2022-09-12T13:43:14.164Z,4.89
2022-09-12T13:44:16.670Z,4.67
2022-09-12T13:45:19.167Z,5.04
2022-09-12T13:46:22.152Z,3.51
2022-09-12T13:47:24.658Z,5.11
2022-09-12T13:48:27.130Z,3.75
2022-09-12T13:49:29.600Z,4.39
2022-09-12T13:50:32.968Z,4.01
2022-09-12T13:51:35.422Z,4.32
2022-09-12T13:52:37.863Z,4.19
2022-09-12T13:53:40.318Z,4.12
2022-09-12T13:54:42.901Z,4.33
2022-09-12T13:55:45.370Z,3.51
2022-09-12T13:56:48.124Z,4.29
2022-09-12T13:57:50.679Z,4.33
2022-09-12T13:58:53.118Z,4.24
2022-09-12T13:59:55.597Z,4.41
2022-09-12T14:00:58.451Z,4.14
2022-09-12T14:02:00.952Z,4.55
2022-09-12T14:03:03.772Z,4.89
2022-09-12T14:04:06.210Z,3.95
2022-09-12T14:05:08.698Z,4.39
2022-09-12T14:06:11.746Z,5.84
2022-09-12T14:07:14.198Z,5.21
2022-09-12T14:08:16.642Z,4.47
2022-09-12T14:09:23.092Z,4.95
2022-09-12T14:10:25.264Z,4.26
2022-09-12T14:11:27.706Z,4.37
2022-09-12T14:12:30.148Z,3.79
2022-09-12T14:13:32.654Z,4.09
2022-09-12T14:14:35.097Z,3.81
2022-09-12T14:15:37.601Z,3.67
2022-09-12T14:16:40.335Z,4.78
2022-09-12T14:17:42.780Z,4.23
2022-09-12T14:18:45.277Z,4.65
2022-09-12T14:19:47.982Z,3.42
2022-09-12T14:20:50.783Z,3.68
2022-09-12T14:21:53.214Z,4.19
2022-09-12T14:22:56.017Z,5.37
2022-09-12T14:23:58.750Z,5.37
2022-09-12T14:25:01.193Z,5.62
2022-09-12T14:26:03.892Z,4.29
2022-09-12T14:27:06.328Z,3.53
2022-09-12T14:28:08.779Z,5.65
2022-09-12T14:29:11.246Z,4.20
2022-09-12T14:30:14.093Z,3.82
2022-09-12T14:31:16.640Z,3.52
2022-09-12T14:32:19.134Z,4.69
2022-09-12T14:33:21.628Z,3.32
2022-09-12T14:34:24.212Z,4.45
2022-09-12T14:35:26.660Z,4.67
2022-09-12T14:36:29.531Z,3.58
2022-09-12T14:37:31.997Z,5.05
2022-09-12T14:38:34.444Z,4.65
2022-09-12T14:39:36.963Z,5.49
2022-09-12T14:40:39.832Z,4.28
2022-09-12T14:41:42.596Z,4.19
2022-09-12T14:42:45.240Z,4.42
2022-09-12T14:43:47.684Z,5.43
2022-09-12T14:44:50.238Z,4.24
2022-09-12T14:45:52.703Z,6.29
2022-09-12T14:46:55.644Z,4.44
2022-09-12T14:47:58.112Z,4.33
2022-09-12T14:49:00.545Z,4.77
2022-09-12T14:50:03.292Z,4.64
2022-09-12T14:51:05.850Z,5.44
2022-09-12T14:52:08.341Z,4.05
2022-09-12T14:53:10.808Z,4.37
2022-09-12T14:54:13.290Z,4.10
2022-09-12T14:55:15.723Z,4.43
2022-09-12T14:56:18.660Z,3.98
2022-09-12T14:57:21.367Z,4.13
2022-09-12T14:58:23.813Z,5.26
2022-09-12T14:59:26.267Z,3.97
2022-09-12T15:00:29.006Z,4.22
2022-09-12T15:01:32.122Z,4.13
2022-09-12T15:02:34.752Z,4.30
2022-09-12T15:03:37.210Z,3.86
2022-09-12T15:04:39.733Z,3.33
2022-09-12T15:05:42.241Z,3.19
2022-09-12T15:06:45.081Z,3.96
2022-09-12T15:07:47.546Z,3.13
2022-09-12T15:08:49.985Z,2.88
2022-09-12T15:09:52.555Z,3.03
2022-09-12T15:10:55.098Z,2.45
2022-09-12T15:11:57.526Z,2.45
2022-09-12T15:12:59.990Z,5.14
2022-09-12T15:14:02.453Z,4.77
2022-09-12T15:15:05.303Z,7.03
2022-09-12T15:16:08.854Z,12.61
2022-09-12T15:17:11.766Z,8.39
2022-09-12T15:18:14.235Z,5.34
2022-09-12T15:19:16.685Z,3.49
2022-09-12T15:20:19.728Z,2.12
2022-09-12T15:21:22.492Z,2.21
2022-09-12T15:22:25.427Z,2.18
2022-09-12T15:23:28.102Z,2.20
2022-09-12T15:24:30.540Z,2.13
2022-09-12T15:25:32.982Z,2.20
2022-09-12T15:26:35.509Z,2.06
2022-09-12T15:27:37.961Z,1.86
2022-09-12T15:28:40.521Z,2.68
2022-09-12T15:29:43.010Z,1.95
2022-09-12T15:30:45.581Z,1.68
2022-09-12T15:31:48.184Z,2.81
2022-09-12T15:32:50.976Z,2.19
2022-09-12T15:33:53.462Z,1.82
2022-09-12T15:34:55.919Z,1.97
2022-09-12T15:35:58.354Z,1.53
2022-09-12T15:37:00.902Z,2.22
2022-09-12T15:38:03.668Z,1.77
2022-09-12T15:39:06.723Z,2.51
2022-09-12T15:40:09.985Z,1.98
2022-09-12T15:41:12.563Z,1.53
2022-09-12T15:42:15.009Z,1.90
2022-09-12T15:43:17.552Z,1.71